sensor_id;sensor_type;location;lat;lon;timestamp;pressure;altitude;pressure_sealevel;temperature;humidity
7178;BME280;3630;42.146;24.756;2023-02-15T00:00:19;100727.84;;;5.71;55.61
7178;BME280;3630;42.146;24.756;2023-02-15T00:02:46;100729.53;;;5.71;55.87
7178;BME280;3630;42.146;24.756;2023-02-15T00:05:14;100733.75;;;5.70;55.59
7178;BME280;3630;42.146;24.756;2023-02-15T00:07:41;100733.16;;;5.60;55.98
7178;BME280;3630;42.146;24.756;2023-02-15T00:10:08;100742.53;;;5.61;56.70
7178;BME280;3630;42.146;24.756;2023-02-15T00:12:37;100732.66;;;5.51;56.22
7178;BME280;3630;42.146;24.756;2023-02-15T00:15:04;100725.88;;;5.51;56.69
7178;BME280;3630;42.146;24.756;2023-02-15T00:17:31;100733.69;;;5.54;57.51
7178;BME280;3630;42.146;24.756;2023-02-15T00:19:57;100742.84;;;5.51;57.11
7178;BME280;3630;42.146;24.756;2023-02-15T00:22:26;100737.66;;;5.49;57.44
7178;BME280;3630;42.146;24.756;2023-02-15T00:24:53;100736.59;;;5.46;57.82
7178;BME280;3630;42.146;24.756;2023-02-15T00:27:20;100733.97;;;5.44;57.72
7178;BME280;3630;42.146;24.756;2023-02-15T00:29:46;100739.75;;;5.42;57.86
7178;BME280;3630;42.146;24.756;2023-02-15T00:32:13;100738.91;;;5.41;57.94
7178;BME280;3630;42.146;24.756;2023-02-15T00:34:40;100718.53;;;5.26;58.43
7178;BME280;3630;42.146;24.756;2023-02-15T00:37:07;100730.81;;;5.33;58.55
7178;BME280;3630;42.146;24.756;2023-02-15T00:39:35;100728.09;;;5.30;58.55
7178;BME280;3630;42.146;24.756;2023-02-15T00:42:02;100736.53;;;5.29;57.91
7178;BME280;3630;42.146;24.756;2023-02-15T00:44:28;100744.09;;;5.28;57.95
7178;BME280;3630;42.146;24.756;2023-02-15T00:46:55;100728.28;;;5.19;58.34
7178;BME280;3630;42.146;24.756;2023-02-15T00:49:22;100747.44;;;5.27;58.47
7178;BME280;3630;42.146;24.756;2023-02-15T00:51:49;100741.09;;;5.20;58.35
7178;BME280;3630;42.146;24.756;2023-02-15T00:54:16;100732.31;;;5.15;58.72
7178;BME280;3630;42.146;24.756;2023-02-15T00:56:44;100735.13;;;5.20;58.79
7178;BME280;3630;42.146;24.756;2023-02-15T00:59:10;100736.38;;;5.26;58.08
7178;BME280;3630;42.146;24.756;2023-02-15T01:01:37;100734.06;;;5.31;57.87
7178;BME280;3630;42.146;24.756;2023-02-15T01:04:04;100732.16;;;5.27;58.32
7178;BME280;3630;42.146;24.756;2023-02-15T01:06:31;100731.28;;;5.26;57.87
7178;BME280;3630;42.146;24.756;2023-02-15T01:12:21;100727.13;;;5.28;58.17
7178;BME280;3630;42.146;24.756;2023-02-15T01:14:48;100723.88;;;5.31;58.40
7178;BME280;3630;42.146;24.756;2023-02-15T01:17:15;100715.34;;;5.30;58.81
7178;BME280;3630;42.146;24.756;2023-02-15T01:19:42;100709.28;;;5.28;58.53
7178;BME280;3630;42.146;24.756;2023-02-15T01:22:08;100715.34;;;5.30;58.82
7178;BME280;3630;42.146;24.756;2023-02-15T01:24:35;100716.94;;;5.28;58.36
7178;BME280;3630;42.146;24.756;2023-02-15T01:27:02;100711.25;;;5.32;58.47
7178;BME280;3630;42.146;24.756;2023-02-15T01:29:31;100705.44;;;5.35;58.63
7178;BME280;3630;42.146;24.756;2023-02-15T01:31:57;100703.66;;;5.34;58.90
7178;BME280;3630;42.146;24.756;2023-02-15T01:34:24;100704.72;;;5.38;57.83
7178;BME280;3630;42.146;24.756;2023-02-15T01:36:51;100707.00;;;5.33;58.15
7178;BME280;3630;42.146;24.756;2023-02-15T01:39:18;100707.63;;;5.29;58.80
7178;BME280;3630;42.146;24.756;2023-02-15T01:41:45;100713.50;;;5.28;58.26
7178;BME280;3630;42.146;24.756;2023-02-15T01:47:33;100718.72;;;5.29;58.12
7178;BME280;3630;42.146;24.756;2023-02-15T01:50:08;100713.84;;;5.34;58.00
7178;BME280;3630;42.146;24.756;2023-02-15T01:52:37;100719.84;;;5.34;58.44
7178;BME280;3630;42.146;24.756;2023-02-15T01:55:06;100717.13;;;5.31;58.40
7178;BME280;3630;42.146;24.756;2023-02-15T01:57:34;100730.75;;;5.32;58.11
7178;BME280;3630;42.146;24.756;2023-02-15T02:00:03;100724.28;;;5.38;57.76
7178;BME280;3630;42.146;24.756;2023-02-15T02:02:32;100735.47;;;5.41;58.86
7178;BME280;3630;42.146;24.756;2023-02-15T02:05:00;100740.22;;;5.34;58.59
7178;BME280;3630;42.146;24.756;2023-02-15T02:07:34;100727.47;;;5.34;58.17
7178;BME280;3630;42.146;24.756;2023-02-15T02:10:03;100739.69;;;5.40;58.09
7178;BME280;3630;42.146;24.756;2023-02-15T02:12:30;100750.41;;;5.34;58.90
7178;BME280;3630;42.146;24.756;2023-02-15T02:14:58;100741.81;;;5.32;58.30
7178;BME280;3630;42.146;24.756;2023-02-15T02:17:36;100744.69;;;5.38;58.92
7178;BME280;3630;42.146;24.756;2023-02-15T02:20:17;100739.09;;;5.29;58.91
7178;BME280;3630;42.146;24.756;2023-02-15T02:23:07;100755.50;;;5.34;59.38
7178;BME280;3630;42.146;24.756;2023-02-15T02:26:04;100744.25;;;5.31;58.78
7178;BME280;3630;42.146;24.756;2023-02-15T02:35:11;100755.16;;;5.28;58.79
7178;BME280;3630;42.146;24.756;2023-02-15T02:37:48;100752.00;;;5.32;59.60
7178;BME280;3630;42.146;24.756;2023-02-15T02:40:20;100753.66;;;5.32;59.53
7178;BME280;3630;42.146;24.756;2023-02-15T02:42:57;100757.81;;;5.30;59.34
7178;BME280;3630;42.146;24.756;2023-02-15T02:45:28;100763.75;;;5.30;58.80
7178;BME280;3630;42.146;24.756;2023-02-15T02:47:59;100759.53;;;5.31;59.32
7178;BME280;3630;42.146;24.756;2023-02-15T02:50:29;100758.47;;;5.27;58.63
7178;BME280;3630;42.146;24.756;2023-02-15T02:52:58;100758.47;;;5.27;58.36
7178;BME280;3630;42.146;24.756;2023-02-15T02:55:28;100755.78;;;5.24;58.37
7178;BME280;3630;42.146;24.756;2023-02-15T02:58:00;100754.97;;;5.25;57.56
7178;BME280;3630;42.146;24.756;2023-02-15T03:00:33;100763.59;;;5.27;58.50
7178;BME280;3630;42.146;24.756;2023-02-15T03:03:05;100756.38;;;5.20;58.21
7178;BME280;3630;42.146;24.756;2023-02-15T03:05:39;100752.88;;;5.18;57.92
7178;BME280;3630;42.146;24.756;2023-02-15T03:08:08;100756.22;;;5.17;58.30
7178;BME280;3630;42.146;24.756;2023-02-15T03:10:38;100755.84;;;5.11;58.27
7178;BME280;3630;42.146;24.756;2023-02-15T03:13:06;100759.38;;;5.13;58.46
7178;BME280;3630;42.146;24.756;2023-02-15T03:15:37;100764.38;;;5.12;59.03
7178;BME280;3630;42.146;24.756;2023-02-15T03:18:36;100768.00;;;5.15;58.63
7178;BME280;3630;42.146;24.756;2023-02-15T03:21:07;100774.50;;;5.10;59.14
7178;BME280;3630;42.146;24.756;2023-02-15T03:23:35;100746.53;;;4.97;59.19
7178;BME280;3630;42.146;24.756;2023-02-15T03:26:05;100749.88;;;4.96;60.15
7178;BME280;3630;42.146;24.756;2023-02-15T03:28:36;100767.56;;;5.08;60.41
7178;BME280;3630;42.146;24.756;2023-02-15T03:31:07;100764.66;;;5.16;59.55
7178;BME280;3630;42.146;24.756;2023-02-15T03:33:36;100764.47;;;5.13;59.04
7178;BME280;3630;42.146;24.756;2023-02-15T03:36:11;100617.00;;;4.30;58.92
7178;BME280;3630;42.146;24.756;2023-02-15T03:38:47;100762.34;;;5.06;59.40
7178;BME280;3630;42.146;24.756;2023-02-15T03:41:18;100763.50;;;5.11;59.03
7178;BME280;3630;42.146;24.756;2023-02-15T03:43:49;100763.41;;;5.10;58.68
7178;BME280;3630;42.146;24.756;2023-02-15T03:46:21;100766.31;;;5.16;59.18
7178;BME280;3630;42.146;24.756;2023-02-15T03:48:53;100769.91;;;5.19;59.37
7178;BME280;3630;42.146;24.756;2023-02-15T03:51:26;100739.94;;;5.01;59.35
7178;BME280;3630;42.146;24.756;2023-02-15T03:54:02;100782.03;;;5.23;59.50
7178;BME280;3630;42.146;24.756;2023-02-15T03:56:30;100778.00;;;5.27;59.62
7178;BME280;3630;42.146;24.756;2023-02-15T03:58:57;100751.56;;;5.10;59.64
7178;BME280;3630;42.146;24.756;2023-02-15T04:01:48;100773.94;;;5.30;59.73
7178;BME280;3630;42.146;24.756;2023-02-15T04:04:28;100772.41;;;5.32;59.47
7178;BME280;3630;42.146;24.756;2023-02-15T04:06:58;100775.19;;;5.22;59.51
7178;BME280;3630;42.146;24.756;2023-02-15T04:09:25;100749.44;;;5.03;59.34
7178;BME280;3630;42.146;24.756;2023-02-15T04:12:09;100787.91;;;5.22;59.29
7178;BME280;3630;42.146;24.756;2023-02-15T04:14:36;100765.06;;;5.09;59.49
7178;BME280;3630;42.146;24.756;2023-02-15T04:17:20;100779.84;;;5.15;58.62
7178;BME280;3630;42.146;24.756;2023-02-15T04:19:47;100780.09;;;5.19;58.82
7178;BME280;3630;42.146;24.756;2023-02-15T04:22:32;100781.31;;;5.11;59.54
7178;BME280;3630;42.146;24.756;2023-02-15T04:25:17;100783.09;;;5.12;58.46
7178;BME280;3630;42.146;24.756;2023-02-15T04:27:46;100772.13;;;5.13;58.61
7178;BME280;3630;42.146;24.756;2023-02-15T04:30:15;100791.81;;;5.16;58.61
7178;BME280;3630;42.146;24.756;2023-02-15T04:32:42;100796.19;;;5.18;58.64
7178;BME280;3630;42.146;24.756;2023-02-15T04:35:09;100796.97;;;5.17;57.99
7178;BME280;3630;42.146;24.756;2023-02-15T04:37:38;100809.72;;;5.17;58.24
7178;BME280;3630;42.146;24.756;2023-02-15T04:40:07;100802.59;;;5.12;58.32
7178;BME280;3630;42.146;24.756;2023-02-15T04:42:34;100800.31;;;5.02;58.73
7178;BME280;3630;42.146;24.756;2023-02-15T04:45:01;100809.00;;;5.05;58.36
7178;BME280;3630;42.146;24.756;2023-02-15T04:47:27;100802.47;;;4.96;59.45
7178;BME280;3630;42.146;24.756;2023-02-15T04:49:54;100808.28;;;4.93;58.76
7178;BME280;3630;42.146;24.756;2023-02-15T04:52:21;100823.63;;;4.95;59.23
7178;BME280;3630;42.146;24.756;2023-02-15T04:54:49;100823.63;;;4.95;59.34
7178;BME280;3630;42.146;24.756;2023-02-15T04:57:16;100825.31;;;4.94;58.97
7178;BME280;3630;42.146;24.756;2023-02-15T04:59:43;100832.06;;;4.94;59.28
7178;BME280;3630;42.146;24.756;2023-02-15T05:02:10;100836.47;;;4.96;58.80
7178;BME280;3630;42.146;24.756;2023-02-15T05:04:37;100829.09;;;5.01;59.19
7178;BME280;3630;42.146;24.756;2023-02-15T05:07:04;100834.19;;;5.01;58.88
7178;BME280;3630;42.146;24.756;2023-02-15T05:09:30;100814.06;;;4.91;59.85
7178;BME280;3630;42.146;24.756;2023-02-15T05:11:58;100837.88;;;5.06;59.22
7178;BME280;3630;42.146;24.756;2023-02-15T05:14:25;100829.91;;;5.00;59.24
7178;BME280;3630;42.146;24.756;2023-02-15T05:16:52;100844.81;;;5.08;59.26
7178;BME280;3630;42.146;24.756;2023-02-15T05:19:19;100844.66;;;5.05;58.82
7178;BME280;3630;42.146;24.756;2023-02-15T05:21:46;100861.81;;;5.08;59.28
7178;BME280;3630;42.146;24.756;2023-02-15T05:24:13;100846.53;;;5.08;58.48
7178;BME280;3630;42.146;24.756;2023-02-15T05:26:58;100852.47;;;5.08;59.56
7178;BME280;3630;42.146;24.756;2023-02-15T05:29:43;100857.56;;;5.08;59.59
7178;BME280;3630;42.146;24.756;2023-02-15T05:32:12;100863.66;;;5.10;59.94
7178;BME280;3630;42.146;24.756;2023-02-15T05:34:39;100868.56;;;5.07;59.52
7178;BME280;3630;42.146;24.756;2023-02-15T05:37:06;100863.72;;;5.12;59.46
7178;BME280;3630;42.146;24.756;2023-02-15T05:39:33;100864.63;;;5.12;59.44
7178;BME280;3630;42.146;24.756;2023-02-15T05:42:02;100867.34;;;5.15;60.09
7178;BME280;3630;42.146;24.756;2023-02-15T05:44:29;100875.88;;;5.16;59.75
7178;BME280;3630;42.146;24.756;2023-02-15T05:46:56;100873.78;;;5.23;59.52
7178;BME280;3630;42.146;24.756;2023-02-15T05:49:22;100873.66;;;5.22;59.83
7178;BME280;3630;42.146;24.756;2023-02-15T05:51:49;100869.44;;;5.22;58.96
7178;BME280;3630;42.146;24.756;2023-02-15T05:54:16;100881.66;;;5.28;58.94
7178;BME280;3630;42.146;24.756;2023-02-15T05:56:43;100881.78;;;5.44;59.27
7178;BME280;3630;42.146;24.756;2023-02-15T05:59:11;100885.31;;;5.46;58.50
7178;BME280;3630;42.146;24.756;2023-02-15T06:01:38;100888.72;;;5.47;58.80
7178;BME280;3630;42.146;24.756;2023-02-15T06:04:05;100886.28;;;5.48;58.27
7178;BME280;3630;42.146;24.756;2023-02-15T06:06:31;100890.50;;;5.48;58.71
7178;BME280;3630;42.146;24.756;2023-02-15T06:08:59;100889.09;;;5.53;58.23
7178;BME280;3630;42.146;24.756;2023-02-15T06:11:26;100894.13;;;5.51;59.08
7178;BME280;3630;42.146;24.756;2023-02-15T06:13:53;100893.41;;;5.54;59.14
7178;BME280;3630;42.146;24.756;2023-02-15T06:16:21;100898.94;;;5.61;59.14
7178;BME280;3630;42.146;24.756;2023-02-15T06:18:48;100899.56;;;5.72;58.44
7178;BME280;3630;42.146;24.756;2023-02-15T06:21:14;100890.50;;;5.77;58.60
7178;BME280;3630;42.146;24.756;2023-02-15T06:23:41;100905.97;;;5.80;58.60
7178;BME280;3630;42.146;24.756;2023-02-15T06:26:08;100899.53;;;5.85;58.51
7178;BME280;3630;42.146;24.756;2023-02-15T06:28:35;100824.94;;;5.45;58.00
7178;BME280;3630;42.146;24.756;2023-02-15T06:31:02;100898.13;;;5.90;57.33
7178;BME280;3630;42.146;24.756;2023-02-15T06:33:30;100872.66;;;5.77;58.33
7178;BME280;3630;42.146;24.756;2023-02-15T06:35:59;100901.97;;;5.98;57.84
7178;BME280;3630;42.146;24.756;2023-02-15T06:38:26;100905.75;;;6.05;57.60
7178;BME280;3630;42.146;24.756;2023-02-15T06:40:52;100913.03;;;6.13;57.02
7178;BME280;3630;42.146;24.756;2023-02-15T06:43:19;100901.88;;;6.11;57.35
7178;BME280;3630;42.146;24.756;2023-02-15T06:45:46;100908.09;;;6.16;57.37
7178;BME280;3630;42.146;24.756;2023-02-15T06:48:13;100904.25;;;6.23;56.92
7178;BME280;3630;42.146;24.756;2023-02-15T06:50:41;100898.06;;;6.34;56.57
7178;BME280;3630;42.146;24.756;2023-02-15T06:53:08;100911.94;;;6.39;56.25
7178;BME280;3630;42.146;24.756;2023-02-15T06:55:35;100914.56;;;6.40;55.77
7178;BME280;3630;42.146;24.756;2023-02-15T06:58:02;100914.38;;;6.52;55.27
7178;BME280;3630;42.146;24.756;2023-02-15T07:00:29;100908.38;;;6.51;55.79
7178;BME280;3630;42.146;24.756;2023-02-15T07:02:57;100910.72;;;6.63;54.73
7178;BME280;3630;42.146;24.756;2023-02-15T07:05:24;100904.50;;;6.58;54.05
7178;BME280;3630;42.146;24.756;2023-02-15T07:07:57;100896.28;;;6.64;54.54
7178;BME280;3630;42.146;24.756;2023-02-15T07:10:24;100900.44;;;6.62;54.69
7178;BME280;3630;42.146;24.756;2023-02-15T07:12:50;100905.00;;;6.67;54.70
7178;BME280;3630;42.146;24.756;2023-02-15T07:15:17;100897.91;;;6.78;53.84
7178;BME280;3630;42.146;24.756;2023-02-15T07:17:46;100904.22;;;6.84;53.80
7178;BME280;3630;42.146;24.756;2023-02-15T07:20:16;100898.50;;;6.88;53.85
7178;BME280;3630;42.146;24.756;2023-02-15T07:22:43;100899.78;;;6.96;53.97
7178;BME280;3630;42.146;24.756;2023-02-15T07:25:12;100896.81;;;7.05;54.17
7178;BME280;3630;42.146;24.756;2023-02-15T07:27:39;100862.78;;;6.90;53.59
7178;BME280;3630;42.146;24.756;2023-02-15T07:30:09;100891.22;;;7.12;53.88
7178;BME280;3630;42.146;24.756;2023-02-15T07:32:36;100890.81;;;7.21;52.88
7178;BME280;3630;42.146;24.756;2023-02-15T07:35:23;100881.88;;;7.12;53.17
7178;BME280;3630;42.146;24.756;2023-02-15T07:37:50;100901.44;;;7.28;53.26
7178;BME280;3630;42.146;24.756;2023-02-15T07:40:19;100896.91;;;7.39;53.06
7178;BME280;3630;42.146;24.756;2023-02-15T07:42:48;100892.81;;;7.42;52.72
7178;BME280;3630;42.146;24.756;2023-02-15T07:45:17;100903.91;;;7.43;52.84
7178;BME280;3630;42.146;24.756;2023-02-15T07:47:43;100905.41;;;7.55;52.75
7178;BME280;3630;42.146;24.756;2023-02-15T07:50:10;100824.22;;;7.18;52.16
7178;BME280;3630;42.146;24.756;2023-02-15T07:52:37;100898.03;;;7.61;52.25
7178;BME280;3630;42.146;24.756;2023-02-15T07:55:04;100905.25;;;7.68;51.94
7178;BME280;3630;42.146;24.756;2023-02-15T07:57:32;100899.16;;;7.66;51.92
7178;BME280;3630;42.146;24.756;2023-02-15T07:59:59;100904.34;;;7.68;51.99
7178;BME280;3630;42.146;24.756;2023-02-15T08:02:26;100912.50;;;7.61;51.48
7178;BME280;3630;42.146;24.756;2023-02-15T08:04:54;100900.59;;;7.61;51.77
7178;BME280;3630;42.146;24.756;2023-02-15T08:07:20;100857.88;;;7.43;51.82
7178;BME280;3630;42.146;24.756;2023-02-15T08:09:47;100907.53;;;7.64;51.76
7178;BME280;3630;42.146;24.756;2023-02-15T08:12:14;100899.75;;;7.79;51.28
7178;BME280;3630;42.146;24.756;2023-02-15T08:14:42;100899.50;;;7.90;50.97
7178;BME280;3630;42.146;24.756;2023-02-15T08:17:09;100898.19;;;7.98;51.06
7178;BME280;3630;42.146;24.756;2023-02-15T08:19:36;100897.25;;;7.96;50.92
7178;BME280;3630;42.146;24.756;2023-02-15T08:22:04;100892.91;;;7.95;51.04
7178;BME280;3630;42.146;24.756;2023-02-15T08:24:33;100871.41;;;7.92;50.97
7178;BME280;3630;42.146;24.756;2023-02-15T08:27:02;100894.63;;;8.12;50.65
7178;BME280;3630;42.146;24.756;2023-02-15T08:29:30;100907.63;;;8.17;49.97
7178;BME280;3630;42.146;24.756;2023-02-15T08:32:00;100901.72;;;8.18;50.46
7178;BME280;3630;42.146;24.756;2023-02-15T08:34:29;100896.06;;;8.25;49.92
7178;BME280;3630;42.146;24.756;2023-02-15T08:36:56;100902.63;;;8.36;49.77
7178;BME280;3630;42.146;24.756;2023-02-15T08:39:23;100893.63;;;8.44;49.85
7178;BME280;3630;42.146;24.756;2023-02-15T08:41:50;100902.53;;;8.52;49.34
7178;BME280;3630;42.146;24.756;2023-02-15T08:44:18;100899.63;;;8.45;49.31
7178;BME280;3630;42.146;24.756;2023-02-15T08:46:46;100900.84;;;8.53;49.19
7178;BME280;3630;42.146;24.756;2023-02-15T08:49:16;100888.78;;;8.50;49.16
7178;BME280;3630;42.146;24.756;2023-02-15T08:51:43;100910.50;;;8.58;49.10
7178;BME280;3630;42.146;24.756;2023-02-15T08:54:13;100875.38;;;8.38;49.17
7178;BME280;3630;42.146;24.756;2023-02-15T08:56:42;100902.03;;;8.59;49.38
7178;BME280;3630;42.146;24.756;2023-02-15T08:59:12;100908.44;;;8.69;48.95
7178;BME280;3630;42.146;24.756;2023-02-15T09:01:39;100908.00;;;8.60;48.87
7178;BME280;3630;42.146;24.756;2023-02-15T09:04:07;100907.56;;;8.68;49.07
7178;BME280;3630;42.146;24.756;2023-02-15T09:06:37;100905.81;;;8.67;49.33
7178;BME280;3630;42.146;24.756;2023-02-15T09:09:04;100923.66;;;8.83;49.11
7178;BME280;3630;42.146;24.756;2023-02-15T09:11:33;100898.22;;;8.88;48.46
7178;BME280;3630;42.146;24.756;2023-02-15T09:14:02;100905.53;;;8.98;48.29
7178;BME280;3630;42.146;24.756;2023-02-15T09:16:30;100889.94;;;8.94;48.69
7178;BME280;3630;42.146;24.756;2023-02-15T09:18:58;100889.41;;;9.01;48.35
7178;BME280;3630;42.146;24.756;2023-02-15T09:21:27;100894.13;;;9.11;48.38
7178;BME280;3630;42.146;24.756;2023-02-15T09:23:58;100887.31;;;9.11;48.01
7178;BME280;3630;42.146;24.756;2023-02-15T09:26:25;100884.00;;;9.14;47.75
7178;BME280;3630;42.146;24.756;2023-02-15T09:28:55;100881.59;;;9.17;47.77
7178;BME280;3630;42.146;24.756;2023-02-15T09:31:23;100884.34;;;9.21;47.46
7178;BME280;3630;42.146;24.756;2023-02-15T09:33:51;100887.22;;;9.29;47.12
7178;BME280;3630;42.146;24.756;2023-02-15T09:36:20;100871.81;;;9.48;46.96
7178;BME280;3630;42.146;24.756;2023-02-15T09:38:52;100843.63;;;9.29;46.72
7178;BME280;3630;42.146;24.756;2023-02-15T09:41:42;100877.28;;;9.56;46.44
7178;BME280;3630;42.146;24.756;2023-02-15T09:44:17;100876.53;;;9.58;45.46
7178;BME280;3630;42.146;24.756;2023-02-15T09:47:00;100872.78;;;9.71;45.86
7178;BME280;3630;42.146;24.756;2023-02-15T09:49:40;100868.22;;;9.64;45.88
7178;BME280;3630;42.146;24.756;2023-02-15T09:52:30;100866.50;;;9.64;46.11
7178;BME280;3630;42.146;24.756;2023-02-15T09:55:28;100864.34;;;9.73;46.13
7178;BME280;3630;42.146;24.756;2023-02-15T09:58:07;100857.78;;;9.80;45.92
7178;BME280;3630;42.146;24.756;2023-02-15T10:00:44;100851.00;;;9.82;46.40
7178;BME280;3630;42.146;24.756;2023-02-15T10:03:36;100836.78;;;9.90;46.70
7178;BME280;3630;42.146;24.756;2023-02-15T10:06:14;100851.06;;;10.04;46.41
7178;BME280;3630;42.146;24.756;2023-02-15T10:08:58;100845.63;;;10.17;45.70
7178;BME280;3630;42.146;24.756;2023-02-15T10:11:36;100840.78;;;10.25;45.52
7178;BME280;3630;42.146;24.756;2023-02-15T10:14:35;100840.97;;;10.29;44.74
7178;BME280;3630;42.146;24.756;2023-02-15T10:17:18;100844.09;;;10.22;44.59
7178;BME280;3630;42.146;24.756;2023-02-15T10:19:59;100833.50;;;10.35;44.24
7178;BME280;3630;42.146;24.756;2023-02-15T10:22:37;100826.91;;;10.42;44.04
7178;BME280;3630;42.146;24.756;2023-02-15T10:25:17;100828.56;;;10.41;43.49
7178;BME280;3630;42.146;24.756;2023-02-15T10:27:47;100822.47;;;10.38;43.49
7178;BME280;3630;42.146;24.756;2023-02-15T10:30:19;100827.72;;;10.41;43.43
7178;BME280;3630;42.146;24.756;2023-02-15T10:32:58;100822.00;;;10.48;43.74
7178;BME280;3630;42.146;24.756;2023-02-15T10:35:32;100822.91;;;10.50;43.51
7178;BME280;3630;42.146;24.756;2023-02-15T10:38:19;100810.31;;;10.56;44.17
7178;BME280;3630;42.146;24.756;2023-02-15T10:40:59;100807.81;;;10.57;42.86
7178;BME280;3630;42.146;24.756;2023-02-15T10:43:40;100812.22;;;10.61;42.20
7178;BME280;3630;42.146;24.756;2023-02-15T10:46:24;100811.47;;;10.64;43.07
7178;BME280;3630;42.146;24.756;2023-02-15T10:49:09;100802.06;;;10.64;43.08
7178;BME280;3630;42.146;24.756;2023-02-15T10:51:45;100797.69;;;10.62;43.35
7178;BME280;3630;42.146;24.756;2023-02-15T10:54:25;100797.84;;;10.66;43.00
7178;BME280;3630;42.146;24.756;2023-02-15T10:57:02;100795.66;;;10.77;42.42
7178;BME280;3630;42.146;24.756;2023-02-15T10:59:47;100797.88;;;10.90;41.36
7178;BME280;3630;42.146;24.756;2023-02-15T11:02:26;100786.59;;;10.87;41.76
7178;BME280;3630;42.146;24.756;2023-02-15T11:05:16;100791.19;;;10.95;41.63
7178;BME280;3630;42.146;24.756;2023-02-15T11:07:47;100786.31;;;11.03;41.58
7178;BME280;3630;42.146;24.756;2023-02-15T11:10:27;100781.31;;;11.07;41.37
7178;BME280;3630;42.146;24.756;2023-02-15T11:12:55;100777.94;;;11.08;41.06
7178;BME280;3630;42.146;24.756;2023-02-15T11:15:28;100781.38;;;11.09;40.92
7178;BME280;3630;42.146;24.756;2023-02-15T11:18:01;100780.50;;;11.08;41.06
7178;BME280;3630;42.146;24.756;2023-02-15T11:20:33;100774.56;;;11.09;40.93
7178;BME280;3630;42.146;24.756;2023-02-15T11:23:02;100777.47;;;11.20;40.43
7178;BME280;3630;42.146;24.756;2023-02-15T11:25:31;100765.50;;;11.20;40.01
7178;BME280;3630;42.146;24.756;2023-02-15T11:28:00;100764.72;;;11.23;40.38
7178;BME280;3630;42.146;24.756;2023-02-15T11:30:38;100752.72;;;11.23;40.14
7178;BME280;3630;42.146;24.756;2023-02-15T11:33:15;100746.91;;;11.29;40.07
7178;BME280;3630;42.146;24.756;2023-02-15T11:35:48;100744.44;;;11.32;39.98
7178;BME280;3630;42.146;24.756;2023-02-15T11:38:19;100745.56;;;11.40;40.13
7178;BME280;3630;42.146;24.756;2023-02-15T11:40:48;100743.19;;;11.46;39.90
7178;BME280;3630;42.146;24.756;2023-02-15T11:43:19;100741.47;;;11.45;39.59
7178;BME280;3630;42.146;24.756;2023-02-15T11:45:48;100726.88;;;11.46;39.60
7178;BME280;3630;42.146;24.756;2023-02-15T11:48:16;100736.44;;;11.50;39.53
7178;BME280;3630;42.146;24.756;2023-02-15T11:50:44;100732.31;;;11.55;39.30
7178;BME280;3630;42.146;24.756;2023-02-15T11:53:13;100728.25;;;11.61;39.13
7178;BME280;3630;42.146;24.756;2023-02-15T11:55:42;100733.22;;;11.57;39.57
7178;BME280;3630;42.146;24.756;2023-02-15T11:58:25;100728.75;;;11.51;39.63
7178;BME280;3630;42.146;24.756;2023-02-15T12:00:56;100720.25;;;11.54;38.34
7178;BME280;3630;42.146;24.756;2023-02-15T12:03:39;100724.59;;;11.55;38.67
7178;BME280;3630;42.146;24.756;2023-02-15T12:06:16;100704.13;;;11.59;38.72
7178;BME280;3630;42.146;24.756;2023-02-15T12:08:48;100709.69;;;11.70;38.77
7178;BME280;3630;42.146;24.756;2023-02-15T12:11:20;100718.22;;;11.69;38.58
7178;BME280;3630;42.146;24.756;2023-02-15T12:13:57;100711.38;;;11.69;38.68
7178;BME280;3630;42.146;24.756;2023-02-15T12:16:25;100709.91;;;11.77;38.05
7178;BME280;3630;42.146;24.756;2023-02-15T12:18:56;100703.22;;;11.84;37.42
7178;BME280;3630;42.146;24.756;2023-02-15T12:21:26;100709.94;;;11.79;37.05
7178;BME280;3630;42.146;24.756;2023-02-15T12:23:56;100716.06;;;11.82;37.34
7178;BME280;3630;42.146;24.756;2023-02-15T12:26:25;100706.59;;;11.81;37.89
7178;BME280;3630;42.146;24.756;2023-02-15T12:28:54;100717.13;;;11.89;37.28
7178;BME280;3630;42.146;24.756;2023-02-15T12:31:27;100700.06;;;11.93;37.63
7178;BME280;3630;42.146;24.756;2023-02-15T12:33:57;100705.63;;;12.06;37.71
7178;BME280;3630;42.146;24.756;2023-02-15T12:36:30;100708.56;;;12.18;37.20
7178;BME280;3630;42.146;24.756;2023-02-15T12:39:20;100707.78;;;12.21;36.37
7178;BME280;3630;42.146;24.756;2023-02-15T12:41:59;100674.47;;;11.99;35.94
7178;BME280;3630;42.146;24.756;2023-02-15T12:44:27;100702.44;;;12.15;36.36
7178;BME280;3630;42.146;24.756;2023-02-15T12:46:59;100698.13;;;12.14;36.56
7178;BME280;3630;42.146;24.756;2023-02-15T12:49:29;100701.53;;;12.13;37.00
7178;BME280;3630;42.146;24.756;2023-02-15T12:51:57;100695.56;;;12.14;36.81
7178;BME280;3630;42.146;24.756;2023-02-15T12:54:36;100687.94;;;12.18;36.66
7178;BME280;3630;42.146;24.756;2023-02-15T12:57:21;100682.97;;;12.24;36.81
7178;BME280;3630;42.146;24.756;2023-02-15T12:59:51;100693.91;;;12.47;35.96
7178;BME280;3630;42.146;24.756;2023-02-15T13:02:23;100689.53;;;12.44;35.78
7178;BME280;3630;42.146;24.756;2023-02-15T13:04:53;100676.28;;;12.31;35.45
7178;BME280;3630;42.146;24.756;2023-02-15T13:07:20;100679.69;;;12.30;35.79
7178;BME280;3630;42.146;24.756;2023-02-15T13:09:48;100684.25;;;12.38;35.87
7178;BME280;3630;42.146;24.756;2023-02-15T13:12:20;100690.13;;;12.34;35.70
7178;BME280;3630;42.146;24.756;2023-02-15T13:14:51;100622.38;;;12.07;35.82
7178;BME280;3630;42.146;24.756;2023-02-15T13:17:23;100677.72;;;12.51;34.97
7178;BME280;3630;42.146;24.756;2023-02-15T13:19:58;100673.44;;;12.52;34.99
7178;BME280;3630;42.146;24.756;2023-02-15T13:22:32;100682.13;;;12.55;34.97
7178;BME280;3630;42.146;24.756;2023-02-15T13:25:04;100684.81;;;12.60;34.56
7178;BME280;3630;42.146;24.756;2023-02-15T13:27:38;100656.97;;;12.47;34.63
7178;BME280;3630;42.146;24.756;2023-02-15T13:30:21;100684.00;;;12.61;34.56
7178;BME280;3630;42.146;24.756;2023-02-15T13:32:52;100680.69;;;12.66;33.80
7178;BME280;3630;42.146;24.756;2023-02-15T13:35:23;100679.94;;;12.70;34.02
7178;BME280;3630;42.146;24.756;2023-02-15T13:38:03;100672.03;;;12.63;34.15
7178;BME280;3630;42.146;24.756;2023-02-15T13:40:37;100675.53;;;12.66;34.22